Nearby METAR Reports

 

KSJC - San Jose, California, USA
Distance from station: NE 9mi, 14km
Updated: Fri, 18-Sep-2020 3:53am CDT
Overcast
Overcast
 Wind from N
Wind: N 10 mph , 17 km/h
Temperature: 66°F , 19°C
Dew Point: 61°F , 16°C
Humidity: 83%
Barometer: 30.00 inHg , 1015.9 hPa
Clouds: Overcast
Visibility: 10 miles , 16 km
Cloud details: Overcast 1300 ft
2020/09/18 08:53 KSJC 180853Z AUTO 35009KT 10SM OVC013 19/16 A3000 RMK AO2 SLP157 T01890156 58000
KNUQ - Moffett Nas/Mtn, California, USA
Distance from station: N 9mi, 14km
Updated: Fri, 18-Sep-2020 4:15am CDT
Overcast
Overcast
 Wind from WNW
Wind: WNW 5 mph , 7 km/h
Temperature: 64°F , 18°C
Dew Point: 61°F , 16°C
Humidity: 88%
Barometer: 30.00 inHg , 1015.9 hPa
Clouds: Overcast
Visibility: 10 miles , 16 km
Cloud details: Few Clouds 1200 ft
Overcast 1700 ft
2020/09/18 09:15 KNUQ 180915Z AUTO 30004KT 10SM FEW012 OVC017 18/16 A3000 RMK AO2
 
KPAO - Palo Alto, California, USA
Distance from station: NNW 14mi, 23km
Updated: Thu, 17-Sep-2020 8:47pm CDT
NOT Current
Clear
Clear
 Wind from NNW
Wind: NNW 9 mph , 15 km/h
Temperature: 70°F , 21°C
Dew Point: 61°F , 16°C
Humidity: 73%
Barometer: 29.95 inHg , 1014.2 hPa
Clouds: Clear
Visibility: 10 miles , 16 km
2020/09/18 01:47 KPAO 180147Z 33008KT 10SM SKC 21/16 A2995 RMK LAST
KRHV - San Jose/Reid, California, USA
Distance from station: ENE 12mi, 19km
Updated: Thu, 17-Sep-2020 11:50pm CDT
NOT Current
Partly cloudy
Partly cloudy
 Wind from WNW
Wind: WNW 7 mph , 11 km/h
Temperature: 68°F , 20°C
Dew Point: 59°F , 15°C
Humidity: 73%
Barometer: 30.00 inHg , 1015.9 hPa
Clouds: Partly cloudy
Visibility: 10 miles , 16 km
Cloud details: Partly cloudy 8000 ft
2020/09/18 04:50 KRHV 180450Z 29006KT 10SM SCT080 20/15 A3000 RMK LAST
 
KOAK - Oakland, California, USA
Distance from station: NNW 31mi, 50km
Updated: Fri, 18-Sep-2020 3:53am CDT
Overcast
Overcast
 Wind from WSW
Wind: WSW 9 mph , 15 km/h
Temperature: 66°F , 19°C
Dew Point: 61°F , 16°C
Humidity: 83%
Barometer: 30.00 inHg , 1015.9 hPa
Clouds: Overcast
Visibility: 10 miles , 16 km
Cloud details: Few Clouds 800 ft
Overcast 1400 ft
2020/09/18 08:53 KOAK 180853Z 25008KT 10SM FEW008 OVC014 19/16 A3000 RMK AO2 SLP159 T01940156 53003 $
KSQL - San Carlos Airpo, California, USA
Distance from station: NW 21mi, 34km
Updated: Fri, 18-Sep-2020 4:15am CDT
Overcast
Overcast
 Wind from W
Wind: W 5 mph , 7 km/h
Temperature: 66°F , 19°C
Dew Point: 61°F , 16°C
Humidity: 83%
Barometer: 30.00 inHg , 1015.9 hPa
Clouds: Overcast
Visibility: 10 miles , 16 km
Cloud details: Overcast 1700 ft
2020/09/18 09:15 KSQL 180915Z AUTO 28004KT 10SM OVC017 19/16 A3000 RMK AO2
 
KSFO - San Francisco, California, USA
Distance from station: NW 30mi, 49km
Updated: Fri, 18-Sep-2020 3:56am CDT
Mostly cloudy
Mostly cloudy
 Wind from W
Wind: W 8 mph , 13 km/h
Temperature: 64°F , 18°C
Dew Point: 61°F , 16°C
Humidity: 88%
Barometer: 29.99 inHg , 1015.6 hPa
Clouds: Mostly cloudy
Visibility: 10 miles , 16 km
Cloud details: Few Clouds 600 ft
Mostly cloudy 1100 ft
2020/09/18 08:56 KSFO 180856Z 28007KT 10SM FEW006 BKN011 18/16 A2999 RMK AO2 SLP156 T01830156 53003 $
KE16 - San Martin, California, USA
Distance from station: ESE 27mi, 43km
Updated: Fri, 18-Sep-2020 4:10am CDT
Few Clouds
Few Clouds
 Wind from NNW
Wind: NNW 6 mph , 9 km/h
Temperature: 64°F , 18°C
Dew Point: 59°F , 15°C
Humidity: 83%
Barometer: 30.00 inHg , 1015.9 hPa
Clouds: Few Clouds
Visibility: 10 miles , 16 km
Cloud details: Few Clouds 2200 ft
2020/09/18 09:10 KE16 180910Z AUTO 33005KT 10SM FEW022 18/15 A3000 RMK AO2 PWINO PNO
 
KWVI - Watsonville, California, USA
Distance from station: SSE 27mi, 44km
Updated: Fri, 18-Sep-2020 3:53am CDT
Clear
Clear
 Wind from calm
Wind: Calm
Temperature: 61°F , 16°C
Dew Point: 57°F , 14°C
Humidity: 88%
Barometer: 29.99 inHg , 1015.6 hPa
Clouds: Clear
Visibility: 10 miles , 16 km
2020/09/18 08:53 KWVI 180853Z AUTO 00000KT 10SM CLR 16/14 A2999 RMK AO2 SLP154 T01560144 55002
KHAF - Half Moon Bay, California, USA
Distance from station: WNW 31mi, 50km
Updated: Fri, 18-Sep-2020 4:15am CDT
Mist, Overcast
Mist, Overcast
 
Temperature: 61°F , 16°C
Dew Point: 59°F , 15°C
Humidity: 94%
Barometer: 30.01 inHg , 1016.3 hPa
Summary: Mist
Clouds: Overcast
Visibility: 5 miles , 8 km
Cloud details: Overcast 500 ft
2020/09/18 09:15 KHAF 180915Z AUTO 5SM BR OVC005 16/15 A3001 RMK AO2
 
KHWD - Hayward, California, USA
Distance from station: N 28mi, 44km
Updated: Fri, 18-Sep-2020 4:19am CDT
Overcast
Overcast
 Wind from W
Wind: W 6 mph , 9 km/h
Temperature: 66°F , 19°C
Dew Point: 59°F , 15°C
Humidity: 78%
Barometer: 29.99 inHg , 1015.6 hPa
Clouds: Overcast
Visibility: 10 miles , 16 km
Cloud details: Overcast 1400 ft
2020/09/18 09:19 KHWD 180919Z 28005KT 10SM OVC014 19/15 A2999 RMK AO2 T01940150
KLVK - Livermore, California, USA
Distance from station: NNE 31mi, 51km
Updated: Fri, 18-Sep-2020 3:53am CDT
Mostly cloudy
Mostly cloudy
 Wind from SW
Wind: SW 9 mph , 15 km/h
Temperature: 63°F , 17°C
Dew Point: 61°F , 16°C
Humidity: 94%
Barometer: 29.99 inHg , 1015.6 hPa
Clouds: Mostly cloudy
Visibility: 10 miles , 16 km
Cloud details: Mostly cloudy 1300 ft
2020/09/18 08:53 KLVK 180853Z AUTO 23008KT 10SM BKN013 17/16 A2999 RMK AO2 SLP150 T01720156 53004